createdAt,value
2022-11-29T00:00:02.755Z,6.25
2022-11-29T00:03:04.795Z,6.80
2022-11-29T00:06:11.376Z,6.05
2022-11-29T00:09:13.139Z,7.82
2022-11-29T00:12:14.500Z,6.75
2022-11-29T00:15:15.866Z,6.78
2022-11-29T00:18:17.104Z,6.30
2022-11-29T00:21:18.411Z,6.40
2022-11-29T00:24:20.108Z,6.47
2022-11-29T00:27:21.391Z,6.63
2022-11-29T00:30:22.669Z,6.45
2022-11-29T00:33:24.027Z,6.70
2022-11-29T00:36:25.298Z,6.43
2022-11-29T00:39:26.580Z,6.40
2022-11-29T00:42:27.909Z,7.47
2022-11-29T00:45:29.246Z,5.60
2022-11-29T00:48:30.909Z,7.43
2022-11-29T00:51:32.229Z,6.07
2022-11-29T00:54:33.538Z,7.38
2022-11-29T00:57:34.820Z,6.50
2022-11-29T01:00:36.154Z,6.25
2022-11-29T01:03:37.464Z,5.57
2022-11-29T01:06:38.770Z,6.63
2022-11-29T01:09:40.112Z,6.35
2022-11-29T01:12:41.435Z,6.72
2022-11-29T01:15:42.724Z,6.13
2022-11-29T01:18:44.089Z,5.28
2022-11-29T01:21:45.353Z,5.50
2022-11-29T01:24:46.903Z,6.90
2022-11-29T01:27:48.378Z,6.50
2022-11-29T01:30:49.691Z,6.07
2022-11-29T01:33:59.317Z,7.65
2022-11-29T01:37:00.674Z,5.85
2022-11-29T01:40:01.979Z,6.28
2022-11-29T01:43:05.730Z,5.72
2022-11-29T01:46:07.023Z,5.97
2022-11-29T01:49:10.858Z,5.68
2022-11-29T01:52:23.817Z,5.97
2022-11-29T01:55:25.160Z,5.50
2022-11-29T01:58:26.764Z,5.78
2022-11-29T02:01:28.131Z,5.78
2022-11-29T02:04:34.845Z,6.13
2022-11-29T02:07:36.503Z,4.78
2022-11-29T02:10:37.817Z,6.82
2022-11-29T02:13:51.279Z,5.40
2022-11-29T02:17:07.650Z,5.80
2022-11-29T02:20:22.830Z,4.82
2022-11-29T02:23:24.355Z,5.05
2022-11-29T02:26:44.010Z,5.00
2022-11-29T02:29:54.353Z,4.68
2022-11-29T02:33:07.792Z,5.18
2022-11-29T02:36:35.789Z,5.28
2022-11-29T02:39:59.110Z,6.00
2022-11-29T02:43:06.441Z,6.07
2022-11-29T02:46:26.393Z,5.18
2022-11-29T02:49:46.582Z,6.18
2022-11-29T02:52:51.853Z,4.55
2022-11-29T02:55:59.416Z,4.38
2022-11-29T02:59:03.712Z,4.47
2022-11-29T03:02:14.790Z,6.07
2022-11-29T03:05:23.198Z,6.03
2022-11-29T03:08:35.059Z,4.85
2022-11-29T03:11:39.401Z,5.03
2022-11-29T03:14:56.961Z,4.20
2022-11-29T03:18:01.253Z,4.80
2022-11-29T03:21:08.396Z,4.55
2022-11-29T03:24:15.556Z,4.93
2022-11-29T03:27:20.764Z,5.25
2022-11-29T03:30:22.203Z,4.85
2022-11-29T03:33:25.911Z,4.95
2022-11-29T03:36:42.325Z,4.90
2022-11-29T03:40:02.480Z,5.10
2022-11-29T03:43:09.736Z,4.88
2022-11-29T03:46:49.932Z,4.90
2022-11-29T03:49:54.228Z,5.90
2022-11-29T03:53:11.410Z,5.68
2022-11-29T03:56:23.408Z,4.70
2022-11-29T03:59:27.681Z,5.90
2022-11-29T04:02:47.791Z,6.10
2022-11-29T04:06:07.596Z,5.30
2022-11-29T04:09:15.005Z,6.50
2022-11-29T04:12:31.418Z,4.70
2022-11-29T04:15:44.896Z,5.30
2022-11-29T04:18:52.300Z,4.78
2022-11-29T04:22:02.790Z,4.93
2022-11-29T04:25:22.110Z,6.97
2022-11-29T04:28:40.348Z,5.03
2022-11-29T04:32:02.646Z,4.53
2022-11-29T04:35:03.915Z,5.22
2022-11-29T04:38:05.316Z,6.65
2022-11-29T04:41:22.050Z,5.28
2022-11-29T04:44:40.248Z,6.15
2022-11-29T04:47:55.402Z,5.28
2022-11-29T04:51:19.015Z,5.28
2022-11-29T04:54:27.092Z,6.53
2022-11-29T04:57:37.208Z,5.80
2022-11-29T05:00:47.946Z,6.35
2022-11-29T05:04:08.175Z,6.18
2022-11-29T05:07:09.391Z,6.25
2022-11-29T05:10:19.830Z,6.25
2022-11-29T05:13:28.761Z,6.50
2022-11-29T05:16:41.821Z,6.47
2022-11-29T05:19:48.283Z,6.20
2022-11-29T05:23:02.651Z,6.00
2022-11-29T05:26:33.163Z,5.75
2022-11-29T05:29:53.264Z,7.15
2022-11-29T05:32:57.810Z,5.60
2022-11-29T05:35:59.024Z,5.47
2022-11-29T05:39:00.234Z,6.88
2022-11-29T05:42:04.746Z,7.93
2022-11-29T05:45:18.079Z,7.00
2022-11-29T05:48:37.649Z,8.13
2022-11-29T05:51:38.880Z,6.82
2022-11-29T05:54:55.557Z,6.80
2022-11-29T05:58:02.433Z,6.78
2022-11-29T06:01:13.275Z,6.88
2022-11-29T06:04:48.509Z,5.78
2022-11-29T06:07:59.799Z,6.97
2022-11-29T06:14:13.337Z,4.53
2022-11-29T06:17:38.790Z,7.13
2022-11-29T06:20:48.565Z,6.63
2022-11-29T06:23:53.097Z,6.20
2022-11-29T06:26:54.586Z,6.38
2022-11-29T06:30:02.316Z,7.20
2022-11-29T06:33:08.574Z,7.45
2022-11-29T06:36:13.994Z,6.18
2022-11-29T06:39:15.412Z,7.68
2022-11-29T06:42:16.766Z,7.18
2022-11-29T06:45:18.266Z,7.35
2022-11-29T06:48:25.369Z,6.45
2022-11-29T06:51:26.589Z,6.15
2022-11-29T06:54:47.777Z,8.00
2022-11-29T06:58:00.087Z,6.13
2022-11-29T07:01:13.463Z,6.30
2022-11-29T07:04:20.588Z,6.72
2022-11-29T07:07:22.762Z,6.63
2022-11-29T07:10:24.759Z,7.13
2022-11-29T07:13:26.096Z,7.20
2022-11-29T07:16:36.988Z,6.35
2022-11-29T07:19:58.557Z,6.13
2022-11-29T07:23:11.351Z,8.10
2022-11-29T07:26:14.910Z,6.30
2022-11-29T07:29:37.455Z,5.82
2022-11-29T07:32:51.389Z,6.13
2022-11-29T07:35:58.918Z,6.05
2022-11-29T07:39:12.378Z,6.28
2022-11-29T07:42:24.813Z,6.63
2022-11-29T07:45:32.003Z,6.15
2022-11-29T07:48:33.374Z,6.30
2022-11-29T07:51:34.629Z,6.78
2022-11-29T07:54:35.902Z,6.80
2022-11-29T07:57:37.246Z,6.47
2022-11-29T08:00:39.507Z,6.70
2022-11-29T08:03:41.495Z,7.15
2022-11-29T08:06:42.864Z,7.53
2022-11-29T08:09:44.388Z,6.97
2022-11-29T08:12:47.993Z,6.55
2022-11-29T08:15:49.306Z,6.63
2022-11-29T08:18:50.723Z,6.07
2022-11-29T08:21:52.229Z,6.60
2022-11-29T08:24:53.497Z,6.72
2022-11-29T08:27:55.392Z,6.50
2022-11-29T08:31:04.768Z,8.77
2022-11-29T08:34:06.979Z,7.53
2022-11-29T08:37:08.433Z,7.25
2022-11-29T08:40:10.064Z,8.63
2022-11-29T08:43:11.388Z,8.23
2022-11-29T08:46:18.314Z,9.10
2022-11-29T08:49:20.145Z,8.43
2022-11-29T08:52:39.994Z,7.07
2022-11-29T08:55:42.783Z,6.68
2022-11-29T08:58:45.046Z,7.20
2022-11-29T09:01:46.374Z,8.25
2022-11-29T09:04:47.701Z,7.10
2022-11-29T09:07:49.035Z,7.18
2022-11-29T09:10:50.479Z,9.50
2022-11-29T09:13:52.933Z,8.07
2022-11-29T09:16:54.297Z,6.93
2022-11-29T09:19:55.656Z,6.55
2022-11-29T09:22:58.189Z,6.50
2022-11-29T09:25:59.488Z,7.47
2022-11-29T09:29:04.941Z,7.22
2022-11-29T09:32:06.565Z,6.05
2022-11-29T09:35:08.066Z,6.93
2022-11-29T09:38:13.130Z,7.32
2022-11-29T09:41:14.415Z,7.82
2022-11-29T09:44:21.811Z,9.15
2022-11-29T09:47:25.962Z,10.65
2022-11-29T09:50:27.225Z,7.30
2022-11-29T09:53:31.347Z,7.35
2022-11-29T09:56:36.359Z,10.45
2022-11-29T09:59:39.530Z,7.95
2022-11-29T10:02:45.529Z,9.00
2022-11-29T10:05:52.724Z,7.60
2022-11-29T10:08:58.815Z,9.52
2022-11-29T10:12:26.482Z,11.13
2022-11-29T10:15:29.170Z,8.77
2022-11-29T10:18:49.147Z,9.85
2022-11-29T10:21:57.177Z,10.60
2022-11-29T10:24:59.478Z,10.60
2022-11-29T10:28:00.747Z,8.05
2022-11-29T10:31:08.365Z,7.95
2022-11-29T10:34:14.202Z,8.15
2022-11-29T10:37:22.066Z,8.18
2022-11-29T10:40:29.837Z,8.15
2022-11-29T10:43:31.330Z,7.75
2022-11-29T10:46:36.460Z,7.45
2022-11-29T10:49:37.821Z,8.45
2022-11-29T10:52:39.390Z,8.70
2022-11-29T10:55:45.868Z,7.45
2022-11-29T10:59:13.491Z,8.10
2022-11-29T11:02:18.905Z,7.18
2022-11-29T11:05:25.099Z,7.15
2022-11-29T11:08:27.138Z,7.30
2022-11-29T11:11:30.280Z,7.60
2022-11-29T11:14:31.842Z,7.18
2022-11-29T11:17:33.743Z,11.00
2022-11-29T11:20:36.095Z,6.68
2022-11-29T11:23:42.748Z,7.05
2022-11-29T11:26:45.267Z,7.07
2022-11-29T11:29:46.609Z,6.90
2022-11-29T11:33:06.450Z,7.25
2022-11-29T11:36:07.977Z,6.00
2022-11-29T11:39:10.892Z,6.72
2022-11-29T11:42:32.648Z,6.70
2022-11-29T11:45:35.584Z,5.43
2022-11-29T11:48:39.959Z,7.07
2022-11-29T11:51:42.261Z,7.28
2022-11-29T11:54:45.407Z,6.60
2022-11-29T11:57:47.494Z,6.47
2022-11-29T12:01:03.991Z,6.55
2022-11-29T12:04:05.899Z,5.68
2022-11-29T12:07:14.456Z,5.90
2022-11-29T12:10:18.905Z,5.95
2022-11-29T12:13:23.445Z,6.35
2022-11-29T12:19:32.283Z,5.50
2022-11-29T12:23:00.020Z,6.45
2022-11-29T12:26:01.368Z,6.13
2022-11-29T12:29:02.688Z,7.82
2022-11-29T12:32:03.970Z,6.82
2022-11-29T12:35:27.910Z,6.88
2022-11-29T12:38:32.332Z,7.88
2022-11-29T12:41:50.954Z,6.38
2022-11-29T12:45:14.145Z,6.43
2022-11-29T12:48:15.420Z,6.47
2022-11-29T12:51:27.703Z,7.13
2022-11-29T12:54:29.287Z,6.63
2022-11-29T12:57:38.092Z,6.55
2022-11-29T13:00:45.300Z,6.97
2022-11-29T13:03:49.434Z,7.03
2022-11-29T13:06:53.534Z,6.47
2022-11-29T13:09:57.862Z,5.88
2022-11-29T13:13:24.897Z,5.75
2022-11-29T13:16:35.535Z,6.30
2022-11-29T13:20:00.226Z,6.10
2022-11-29T13:23:39.236Z,6.45
2022-11-29T13:26:46.068Z,6.28
2022-11-29T13:29:48.166Z,6.47
2022-11-29T13:32:56.996Z,6.15
2022-11-29T13:36:05.091Z,6.68
2022-11-29T13:39:25.194Z,6.22
2022-11-29T13:42:45.212Z,5.72
2022-11-29T13:45:49.408Z,7.53
2022-11-29T13:48:52.503Z,7.05
2022-11-29T13:52:04.309Z,6.72
2022-11-29T13:55:11.629Z,6.80
2022-11-29T13:58:17.740Z,6.63
2022-11-29T14:01:20.753Z,7.15
2022-11-29T14:04:39.212Z,5.97
2022-11-29T14:08:00.463Z,6.78
2022-11-29T14:11:05.215Z,7.00
2022-11-29T14:14:17.188Z,6.40
2022-11-29T14:17:37.101Z,6.72
2022-11-29T14:20:43.986Z,7.05
2022-11-29T14:23:46.624Z,6.95
2022-11-29T14:26:47.900Z,7.03
2022-11-29T14:29:55.150Z,7.25
2022-11-29T14:32:56.553Z,7.20
2022-11-29T14:36:13.204Z,7.45
2022-11-29T14:39:25.879Z,7.28
2022-11-29T14:42:28.240Z,7.07
2022-11-29T14:45:31.303Z,7.03
2022-11-29T14:48:32.946Z,6.70
2022-11-29T14:51:34.345Z,7.22
2022-11-29T14:54:36.803Z,6.88
2022-11-29T14:57:47.224Z,7.45
2022-11-29T15:00:48.462Z,6.60
2022-11-29T15:03:49.967Z,7.47
2022-11-29T15:06:53.747Z,7.63
2022-11-29T15:09:56.156Z,6.15
2022-11-29T15:12:59.589Z,7.75
2022-11-29T15:16:08.864Z,6.57
2022-11-29T15:19:16.928Z,7.35
2022-11-29T15:22:19.855Z,7.00
2022-11-29T15:25:26.319Z,7.07
2022-11-29T15:28:28.981Z,7.85
2022-11-29T15:31:31.308Z,8.80
2022-11-29T15:34:40.672Z,8.13
2022-11-29T15:37:44.539Z,7.90
2022-11-29T15:40:53.486Z,7.85
2022-11-29T15:43:59.743Z,7.30
2022-11-29T15:47:19.944Z,8.95
2022-11-29T15:50:25.751Z,7.30
2022-11-29T15:53:33.903Z,8.68
2022-11-29T15:56:46.388Z,6.97
2022-11-29T15:59:53.206Z,8.23
2022-11-29T16:03:01.620Z,8.45
2022-11-29T16:06:17.716Z,8.23
2022-11-29T16:09:20.940Z,8.20
2022-11-29T16:12:22.248Z,9.57
2022-11-29T16:15:43.892Z,7.15
2022-11-29T16:18:46.664Z,7.72
2022-11-29T16:21:58.309Z,9.45
2022-11-29T16:25:04.543Z,8.35
2022-11-29T16:28:10.450Z,8.90
2022-11-29T16:31:44.302Z,9.32
2022-11-29T16:34:45.924Z,8.95
2022-11-29T16:37:47.705Z,8.50
2022-11-29T16:41:02.566Z,8.07
2022-11-29T16:44:04.877Z,8.88
2022-11-29T16:47:23.276Z,8.13
2022-11-29T16:50:25.446Z,7.72
2022-11-29T16:53:31.960Z,6.85
2022-11-29T16:56:33.408Z,6.70
2022-11-29T16:59:35.345Z,7.05
2022-11-29T17:02:36.768Z,7.18
2022-11-29T17:05:44.382Z,6.60
2022-11-29T17:08:46.142Z,7.63
2022-11-29T17:11:47.541Z,7.47
2022-11-29T17:14:48.953Z,6.15
2022-11-29T17:17:50.241Z,7.10
2022-11-29T17:20:54.560Z,8.25
2022-11-29T17:23:55.902Z,10.15
2022-11-29T17:26:57.270Z,7.10
2022-11-29T17:29:58.566Z,7.97
2022-11-29T17:32:59.903Z,8.07
2022-11-29T17:36:05.040Z,7.68
2022-11-29T17:39:06.286Z,7.65
2022-11-29T17:42:07.546Z,7.88
2022-11-29T17:45:09.006Z,7.88
2022-11-29T17:48:10.299Z,10.13
2022-11-29T17:51:36.023Z,9.07
2022-11-29T17:54:33.725Z,10.02
2022-11-29T17:57:34.971Z,10.48
2022-11-29T18:00:36.258Z,10.05
2022-11-29T18:03:39.901Z,10.20
2022-11-29T18:06:41.344Z,10.88
2022-11-29T18:09:43.184Z,11.93
2022-11-29T18:12:44.563Z,11.27
2022-11-29T18:15:45.834Z,14.48
2022-11-29T18:18:47.748Z,11.52
2022-11-29T18:21:49.569Z,7.93
2022-11-29T18:24:51.026Z,9.43
2022-11-29T18:27:52.841Z,9.70
2022-11-29T18:30:54.238Z,9.73
2022-11-29T18:33:56.911Z,9.95
2022-11-29T18:36:58.266Z,11.55
2022-11-29T18:39:59.531Z,10.30
2022-11-29T18:43:00.913Z,10.25
2022-11-29T18:46:18.877Z,9.88
2022-11-29T18:49:20.216Z,11.70
2022-11-29T18:52:21.511Z,9.23
2022-11-29T18:55:23.173Z,9.77
2022-11-29T18:58:24.503Z,10.82
2022-11-29T19:01:27.827Z,9.40
2022-11-29T19:04:29.303Z,11.27
2022-11-29T19:07:32.882Z,11.48
2022-11-29T19:10:37.057Z,9.98
2022-11-29T19:13:38.605Z,9.43
2022-11-29T19:16:41.418Z,10.93
2022-11-29T19:19:42.836Z,10.23
2022-11-29T19:22:44.182Z,9.13
2022-11-29T19:25:45.543Z,10.45
2022-11-29T19:28:47.236Z,8.93
2022-11-29T19:31:50.242Z,9.15
2022-11-29T19:34:52.643Z,12.05
2022-11-29T19:37:54.114Z,13.77
2022-11-29T19:40:55.405Z,10.25
2022-11-29T19:43:58.097Z,11.07
2022-11-29T19:46:59.409Z,10.30
2022-11-29T19:50:02.603Z,10.40
2022-11-29T19:53:04.272Z,11.77
2022-11-29T19:56:10.377Z,10.77
2022-11-29T19:59:11.640Z,10.57
2022-11-29T20:02:13.039Z,9.52
2022-11-29T20:05:14.548Z,9.13
2022-11-29T20:08:21.008Z,9.80
2022-11-29T20:11:23.847Z,9.13
2022-11-29T20:14:25.162Z,8.18
2022-11-29T20:17:26.595Z,6.60
2022-11-29T20:20:27.926Z,7.55
2022-11-29T20:23:29.281Z,9.30
2022-11-29T20:26:31.304Z,9.25
2022-11-29T20:29:32.933Z,8.10
2022-11-29T20:32:34.706Z,8.70
2022-11-29T20:35:36.075Z,8.52
2022-11-29T20:38:41.604Z,8.25
2022-11-29T20:41:55.575Z,8.13
2022-11-29T20:45:09.743Z,7.60
2022-11-29T20:48:13.041Z,7.95
2022-11-29T20:51:15.193Z,7.75
2022-11-29T20:54:17.505Z,9.35
2022-11-29T20:57:18.750Z,7.35
2022-11-29T21:00:20.330Z,6.88
2022-11-29T21:03:22.346Z,8.20
2022-11-29T21:06:23.702Z,8.50
2022-11-29T21:09:25.013Z,8.10
2022-11-29T21:12:26.446Z,8.73
2022-11-29T21:15:28.191Z,10.35
2022-11-29T21:18:30.296Z,9.43
2022-11-29T21:21:41.739Z,9.13
2022-11-29T21:24:48.240Z,7.22
2022-11-29T21:27:50.249Z,7.43
2022-11-29T21:30:51.712Z,6.72
2022-11-29T21:33:53.204Z,7.38
2022-11-29T21:36:58.749Z,5.63
2022-11-29T21:40:00.082Z,6.88
2022-11-29T21:43:01.384Z,7.40
2022-11-29T21:46:02.775Z,6.97
2022-11-29T21:49:04.708Z,9.48
2022-11-29T21:52:06.377Z,8.98
2022-11-29T21:55:07.846Z,8.23
2022-11-29T21:58:09.118Z,9.40
2022-11-29T22:01:17.933Z,8.32
2022-11-29T22:04:19.657Z,7.78
2022-11-29T22:07:21.011Z,8.77
2022-11-29T22:10:22.264Z,9.00
2022-11-29T22:13:23.580Z,8.30
2022-11-29T22:16:25.230Z,8.13
2022-11-29T22:19:28.194Z,7.43
2022-11-29T22:22:30.164Z,7.55
2022-11-29T22:25:31.434Z,7.78
2022-11-29T22:28:33.454Z,7.35
2022-11-29T22:31:35.512Z,7.68
2022-11-29T22:34:36.828Z,7.68
2022-11-29T22:37:38.129Z,10.13
2022-11-29T22:40:39.426Z,5.93
2022-11-29T22:43:41.072Z,7.30
2022-11-29T22:46:42.415Z,6.53
2022-11-29T22:49:44.490Z,7.18
2022-11-29T22:52:45.718Z,7.10
2022-11-29T22:55:46.978Z,7.10
2022-11-29T22:58:48.432Z,5.80
2022-11-29T23:01:49.766Z,7.10
2022-11-29T23:04:51.041Z,6.45
2022-11-29T23:07:55.318Z,6.45
2022-11-29T23:10:57.328Z,6.75
2022-11-29T23:13:58.595Z,7.07
2022-11-29T23:17:00.905Z,6.72
2022-11-29T23:20:02.125Z,7.38
2022-11-29T23:23:03.380Z,6.00
2022-11-29T23:26:05.482Z,6.80
2022-11-29T23:29:07.856Z,7.60
2022-11-29T23:32:09.169Z,6.57
2022-11-29T23:35:10.503Z,9.02
2022-11-29T23:38:11.782Z,9.05
2022-11-29T23:41:13.416Z,7.20
2022-11-29T23:44:14.661Z,8.45
2022-11-29T23:47:15.952Z,7.50
2022-11-29T23:50:17.210Z,7.72
2022-11-29T23:53:19.116Z,7.15
2022-11-29T23:56:20.841Z,8.23
2022-11-29T23:59:22.115Z,7.05
